sensor_id;sensor_type;location;lat;lon;timestamp;temperature;humidity
55777;DHT22;54079;44.540;18.784;2022-10-16T00:02:25;11.70;99.90
55777;DHT22;54079;44.540;18.784;2022-10-16T00:04:50;11.70;99.90
55777;DHT22;54079;44.540;18.784;2022-10-16T00:07:16;11.80;99.90
55777;DHT22;54079;44.540;18.784;2022-10-16T00:09:42;11.80;99.90
55777;DHT22;54079;44.540;18.784;2022-10-16T00:12:09;11.70;99.90
55777;DHT22;54079;44.540;18.784;2022-10-16T00:14:34;11.70;99.90
55777;DHT22;54079;44.540;18.784;2022-10-16T00:17:00;11.70;99.90
55777;DHT22;54079;44.540;18.784;2022-10-16T00:19:26;11.80;99.90
55777;DHT22;54079;44.540;18.784;2022-10-16T00:21:52;11.80;99.90
55777;DHT22;54079;44.540;18.784;2022-10-16T00:24:19;11.80;99.90
55777;DHT22;54079;44.540;18.784;2022-10-16T00:26:44;11.90;99.90
55777;DHT22;54079;44.540;18.784;2022-10-16T00:29:10;12.00;99.90
55777;DHT22;54079;44.540;18.784;2022-10-16T00:31:36;12.00;99.90
55777;DHT22;54079;44.540;18.784;2022-10-16T00:34:02;12.10;99.90
55777;DHT22;54079;44.540;18.784;2022-10-16T00:36:28;12.10;99.90
55777;DHT22;54079;44.540;18.784;2022-10-16T00:38:56;12.20;99.90
55777;DHT22;54079;44.540;18.784;2022-10-16T00:41:25;12.10;99.90
55777;DHT22;54079;44.540;18.784;2022-10-16T00:43:59;12.30;99.90
55777;DHT22;54079;44.540;18.784;2022-10-16T00:49:04;12.20;99.90
55777;DHT22;54079;44.540;18.784;2022-10-16T00:51:51;12.10;99.90
55777;DHT22;54079;44.540;18.784;2022-10-16T00:54:21;12.10;99.90
55777;DHT22;54079;44.540;18.784;2022-10-16T00:56:47;12.10;99.90
55777;DHT22;54079;44.540;18.784;2022-10-16T00:59:34;12.00;99.90
55777;DHT22;54079;44.540;18.784;2022-10-16T01:02:01;12.10;99.90
55777;DHT22;54079;44.540;18.784;2022-10-16T01:04:44;12.10;99.90
55777;DHT22;54079;44.540;18.784;2022-10-16T01:13:10;12.30;99.90
55777;DHT22;54079;44.540;18.784;2022-10-16T01:21:20;12.30;99.90
55777;DHT22;54079;44.540;18.784;2022-10-16T01:27:12;12.20;99.90
55777;DHT22;54079;44.540;18.784;2022-10-16T01:30:06;12.20;99.90
55777;DHT22;54079;44.540;18.784;2022-10-16T01:32:43;12.10;99.90
55777;DHT22;54079;44.540;18.784;2022-10-16T01:35:30;12.20;99.90
55777;DHT22;54079;44.540;18.784;2022-10-16T01:38:12;12.20;99.90
55777;DHT22;54079;44.540;18.784;2022-10-16T01:40:47;12.10;99.90
55777;DHT22;54079;44.540;18.784;2022-10-16T01:43:18;12.10;99.90
55777;DHT22;54079;44.540;18.784;2022-10-16T01:45:46;12.00;99.90
55777;DHT22;54079;44.540;18.784;2022-10-16T01:48:18;12.00;99.90
55777;DHT22;54079;44.540;18.784;2022-10-16T01:50:59;12.00;99.90
55777;DHT22;54079;44.540;18.784;2022-10-16T01:53:26;11.90;99.90
55777;DHT22;54079;44.540;18.784;2022-10-16T01:55:54;11.80;99.90
55777;DHT22;54079;44.540;18.784;2022-10-16T01:58:22;11.80;99.90
55777;DHT22;54079;44.540;18.784;2022-10-16T02:00:50;11.80;99.90
55777;DHT22;54079;44.540;18.784;2022-10-16T02:03:18;11.80;99.90
55777;DHT22;54079;44.540;18.784;2022-10-16T02:05:50;11.70;99.90
55777;DHT22;54079;44.540;18.784;2022-10-16T02:08:17;11.80;99.90
55777;DHT22;54079;44.540;18.784;2022-10-16T02:10:43;11.70;99.90
55777;DHT22;54079;44.540;18.784;2022-10-16T02:13:13;11.60;99.90
55777;DHT22;54079;44.540;18.784;2022-10-16T02:15:41;11.70;99.90
55777;DHT22;54079;44.540;18.784;2022-10-16T02:18:08;11.60;99.90
55777;DHT22;54079;44.540;18.784;2022-10-16T02:21:00;11.70;99.90
55777;DHT22;54079;44.540;18.784;2022-10-16T02:23:41;11.70;99.90
55777;DHT22;54079;44.540;18.784;2022-10-16T02:26:13;11.60;99.90
55777;DHT22;54079;44.540;18.784;2022-10-16T02:28:54;11.60;99.90
55777;DHT22;54079;44.540;18.784;2022-10-16T02:31:26;11.60;99.90
55777;DHT22;54079;44.540;18.784;2022-10-16T02:33:55;11.60;99.90
55777;DHT22;54079;44.540;18.784;2022-10-16T02:36:23;11.60;99.90
55777;DHT22;54079;44.540;18.784;2022-10-16T02:38:51;11.60;99.90
55777;DHT22;54079;44.540;18.784;2022-10-16T02:41:21;11.50;99.90
55777;DHT22;54079;44.540;18.784;2022-10-16T02:43:47;11.50;99.90
55777;DHT22;54079;44.540;18.784;2022-10-16T02:46:13;11.50;99.90
55777;DHT22;54079;44.540;18.784;2022-10-16T02:48:39;11.50;99.90
55777;DHT22;54079;44.540;18.784;2022-10-16T02:51:05;11.50;99.90
55777;DHT22;54079;44.540;18.784;2022-10-16T02:53:31;11.50;99.90
55777;DHT22;54079;44.540;18.784;2022-10-16T02:55:57;11.40;99.90
55777;DHT22;54079;44.540;18.784;2022-10-16T02:58:23;11.40;99.90
55777;DHT22;54079;44.540;18.784;2022-10-16T03:00:49;11.40;99.90
55777;DHT22;54079;44.540;18.784;2022-10-16T03:03:15;11.40;99.90
55777;DHT22;54079;44.540;18.784;2022-10-16T03:05:43;11.20;99.90
55777;DHT22;54079;44.540;18.784;2022-10-16T03:08:11;11.30;99.90
55777;DHT22;54079;44.540;18.784;2022-10-16T03:10:37;11.30;99.90
55777;DHT22;54079;44.540;18.784;2022-10-16T03:13:03;11.30;99.90
55777;DHT22;54079;44.540;18.784;2022-10-16T03:15:29;11.20;99.90
55777;DHT22;54079;44.540;18.784;2022-10-16T03:17:58;11.20;99.90
55777;DHT22;54079;44.540;18.784;2022-10-16T03:20:24;11.20;99.90
55777;DHT22;54079;44.540;18.784;2022-10-16T03:22:50;11.30;99.90
55777;DHT22;54079;44.540;18.784;2022-10-16T03:25:16;11.30;99.90
55777;DHT22;54079;44.540;18.784;2022-10-16T03:27:42;11.30;99.90
55777;DHT22;54079;44.540;18.784;2022-10-16T03:30:08;11.30;99.90
55777;DHT22;54079;44.540;18.784;2022-10-16T03:32:34;11.20;99.90
55777;DHT22;54079;44.540;18.784;2022-10-16T03:35:00;11.20;99.90
55777;DHT22;54079;44.540;18.784;2022-10-16T03:37:26;11.20;99.90
55777;DHT22;54079;44.540;18.784;2022-10-16T03:39:52;11.10;99.90
55777;DHT22;54079;44.540;18.784;2022-10-16T03:42:18;11.20;99.90
55777;DHT22;54079;44.540;18.784;2022-10-16T03:44:45;11.20;99.90
55777;DHT22;54079;44.540;18.784;2022-10-16T03:47:11;11.10;99.90
55777;DHT22;54079;44.540;18.784;2022-10-16T03:49:37;11.20;99.90
55777;DHT22;54079;44.540;18.784;2022-10-16T03:52:03;11.10;99.90
55777;DHT22;54079;44.540;18.784;2022-10-16T03:54:28;11.10;99.90
55777;DHT22;54079;44.540;18.784;2022-10-16T03:56:54;11.10;99.90
55777;DHT22;54079;44.540;18.784;2022-10-16T03:59:20;11.10;99.90
55777;DHT22;54079;44.540;18.784;2022-10-16T04:01:46;11.10;99.90
55777;DHT22;54079;44.540;18.784;2022-10-16T04:04:12;11.00;99.90
55777;DHT22;54079;44.540;18.784;2022-10-16T04:06:38;11.00;99.90
55777;DHT22;54079;44.540;18.784;2022-10-16T04:09:07;11.10;99.90
55777;DHT22;54079;44.540;18.784;2022-10-16T04:11:33;11.10;99.90
55777;DHT22;54079;44.540;18.784;2022-10-16T04:14:00;11.10;99.90
55777;DHT22;54079;44.540;18.784;2022-10-16T04:16:26;11.10;99.90
55777;DHT22;54079;44.540;18.784;2022-10-16T04:18:52;11.20;99.90
55777;DHT22;54079;44.540;18.784;2022-10-16T04:21:21;11.10;99.90
55777;DHT22;54079;44.540;18.784;2022-10-16T04:23:48;11.10;99.90
55777;DHT22;54079;44.540;18.784;2022-10-16T04:26:14;11.00;99.90
55777;DHT22;54079;44.540;18.784;2022-10-16T04:28:41;10.90;99.90
55777;DHT22;54079;44.540;18.784;2022-10-16T04:31:07;10.90;99.90
55777;DHT22;54079;44.540;18.784;2022-10-16T04:33:33;10.90;99.90
55777;DHT22;54079;44.540;18.784;2022-10-16T04:36:00;10.90;99.90
55777;DHT22;54079;44.540;18.784;2022-10-16T04:38:26;10.90;99.90
55777;DHT22;54079;44.540;18.784;2022-10-16T04:40:53;10.90;99.90
55777;DHT22;54079;44.540;18.784;2022-10-16T04:43:19;10.90;99.90
55777;DHT22;54079;44.540;18.784;2022-10-16T04:45:46;10.90;99.90
55777;DHT22;54079;44.540;18.784;2022-10-16T04:48:11;10.90;99.90
55777;DHT22;54079;44.540;18.784;2022-10-16T04:50:38;10.90;99.90
55777;DHT22;54079;44.540;18.784;2022-10-16T04:53:03;10.90;99.90
55777;DHT22;54079;44.540;18.784;2022-10-16T04:55:29;11.00;99.90
55777;DHT22;54079;44.540;18.784;2022-10-16T04:57:55;10.90;99.90
55777;DHT22;54079;44.540;18.784;2022-10-16T05:00:21;11.00;99.90
55777;DHT22;54079;44.540;18.784;2022-10-16T05:02:49;11.00;99.90
55777;DHT22;54079;44.540;18.784;2022-10-16T05:05:15;11.10;99.90
55777;DHT22;54079;44.540;18.784;2022-10-16T05:07:41;11.10;99.90
55777;DHT22;54079;44.540;18.784;2022-10-16T05:10:07;11.10;99.90
55777;DHT22;54079;44.540;18.784;2022-10-16T05:12:34;11.10;99.90
55777;DHT22;54079;44.540;18.784;2022-10-16T05:15:00;11.10;99.90
55777;DHT22;54079;44.540;18.784;2022-10-16T05:17:26;11.10;99.90
55777;DHT22;54079;44.540;18.784;2022-10-16T05:19:52;11.20;99.90
55777;DHT22;54079;44.540;18.784;2022-10-16T05:22:18;11.30;99.90
55777;DHT22;54079;44.540;18.784;2022-10-16T05:24:44;11.30;99.90
55777;DHT22;54079;44.540;18.784;2022-10-16T05:27:11;11.40;99.90
55777;DHT22;54079;44.540;18.784;2022-10-16T05:29:48;11.40;99.90
55777;DHT22;54079;44.540;18.784;2022-10-16T05:32:16;11.50;99.90
55777;DHT22;54079;44.540;18.784;2022-10-16T05:34:42;11.50;99.90
55777;DHT22;54079;44.540;18.784;2022-10-16T05:37:08;11.50;99.90
55777;DHT22;54079;44.540;18.784;2022-10-16T05:39:34;11.50;99.90
55777;DHT22;54079;44.540;18.784;2022-10-16T05:42:02;11.60;99.90
55777;DHT22;54079;44.540;18.784;2022-10-16T05:44:28;11.60;99.90
55777;DHT22;54079;44.540;18.784;2022-10-16T05:46:54;11.60;99.90
55777;DHT22;54079;44.540;18.784;2022-10-16T05:49:20;11.50;99.90
55777;DHT22;54079;44.540;18.784;2022-10-16T05:51:46;11.50;99.90
55777;DHT22;54079;44.540;18.784;2022-10-16T05:54:12;11.50;99.90
55777;DHT22;54079;44.540;18.784;2022-10-16T05:56:38;11.60;99.90
55777;DHT22;54079;44.540;18.784;2022-10-16T05:59:04;11.50;99.90
55777;DHT22;54079;44.540;18.784;2022-10-16T06:01:30;11.50;99.90
55777;DHT22;54079;44.540;18.784;2022-10-16T06:03:57;11.70;99.90
55777;DHT22;54079;44.540;18.784;2022-10-16T06:06:25;11.80;99.90
55777;DHT22;54079;44.540;18.784;2022-10-16T06:08:53;11.90;99.90
55777;DHT22;54079;44.540;18.784;2022-10-16T06:11:21;11.90;99.90
55777;DHT22;54079;44.540;18.784;2022-10-16T06:13:51;11.90;99.90
55777;DHT22;54079;44.540;18.784;2022-10-16T06:16:18;12.00;99.90
55777;DHT22;54079;44.540;18.784;2022-10-16T06:18:44;12.10;99.90
55777;DHT22;54079;44.540;18.784;2022-10-16T06:21:13;12.20;99.90
55777;DHT22;54079;44.540;18.784;2022-10-16T06:23:39;12.30;99.90
55777;DHT22;54079;44.540;18.784;2022-10-16T06:26:10;12.30;99.90
55777;DHT22;54079;44.540;18.784;2022-10-16T06:28:37;12.50;99.90
55777;DHT22;54079;44.540;18.784;2022-10-16T06:31:04;12.60;99.90
55777;DHT22;54079;44.540;18.784;2022-10-16T06:33:31;12.70;99.90
55777;DHT22;54079;44.540;18.784;2022-10-16T06:36:05;12.70;99.90
55777;DHT22;54079;44.540;18.784;2022-10-16T06:38:32;12.70;99.90
55777;DHT22;54079;44.540;18.784;2022-10-16T06:40:58;12.70;99.90
55777;DHT22;54079;44.540;18.784;2022-10-16T06:43:24;13.10;99.90
55777;DHT22;54079;44.540;18.784;2022-10-16T06:45:55;14.70;98.10
55777;DHT22;54079;44.540;18.784;2022-10-16T06:48:22;16.40;90.20
55777;DHT22;54079;44.540;18.784;2022-10-16T06:53:21;18.70;76.80
55777;DHT22;54079;44.540;18.784;2022-10-16T06:55:47;19.60;73.30
55777;DHT22;54079;44.540;18.784;2022-10-16T06:58:13;20.30;72.40
55777;DHT22;54079;44.540;18.784;2022-10-16T07:00:39;21.00;67.40
55777;DHT22;54079;44.540;18.784;2022-10-16T07:03:05;21.40;65.60
55777;DHT22;54079;44.540;18.784;2022-10-16T07:05:31;21.90;65.20
55777;DHT22;54079;44.540;18.784;2022-10-16T07:07:57;22.30;63.10
55777;DHT22;54079;44.540;18.784;2022-10-16T07:10:23;22.70;61.40
55777;DHT22;54079;44.540;18.784;2022-10-16T07:12:49;23.10;60.20
55777;DHT22;54079;44.540;18.784;2022-10-16T07:15:15;23.50;59.70
55777;DHT22;54079;44.540;18.784;2022-10-16T07:17:41;24.20;59.10
55777;DHT22;54079;44.540;18.784;2022-10-16T07:20:07;24.70;57.80
55777;DHT22;54079;44.540;18.784;2022-10-16T07:22:33;25.50;55.70
55777;DHT22;54079;44.540;18.784;2022-10-16T07:24:59;26.10;55.00
55777;DHT22;54079;44.540;18.784;2022-10-16T07:27:25;26.10;54.00
55777;DHT22;54079;44.540;18.784;2022-10-16T07:29:51;26.30;54.00
55777;DHT22;54079;44.540;18.784;2022-10-16T07:32:17;26.70;54.00
55777;DHT22;54079;44.540;18.784;2022-10-16T07:34:44;27.80;52.90
55777;DHT22;54079;44.540;18.784;2022-10-16T07:37:11;28.10;52.60
55777;DHT22;54079;44.540;18.784;2022-10-16T07:39:37;28.40;51.70
55777;DHT22;54079;44.540;18.784;2022-10-16T07:42:03;28.70;50.30
55777;DHT22;54079;44.540;18.784;2022-10-16T07:44:29;29.10;50.50
55777;DHT22;54079;44.540;18.784;2022-10-16T07:46:55;29.50;49.90
55777;DHT22;54079;44.540;18.784;2022-10-16T07:49:21;30.10;49.20
55777;DHT22;54079;44.540;18.784;2022-10-16T07:51:47;30.70;48.60
55777;DHT22;54079;44.540;18.784;2022-10-16T07:54:12;31.10;48.90
55777;DHT22;54079;44.540;18.784;2022-10-16T07:56:38;31.70;47.70
55777;DHT22;54079;44.540;18.784;2022-10-16T07:59:04;32.10;47.10
55777;DHT22;54079;44.540;18.784;2022-10-16T08:01:30;32.40;46.80
55777;DHT22;54079;44.540;18.784;2022-10-16T08:03:59;32.90;45.40
55777;DHT22;54079;44.540;18.784;2022-10-16T08:06:26;33.10;45.00
55777;DHT22;54079;44.540;18.784;2022-10-16T08:08:52;33.50;44.40
55777;DHT22;54079;44.540;18.784;2022-10-16T08:11:18;33.50;44.00
55777;DHT22;54079;44.540;18.784;2022-10-16T08:13:44;33.70;43.40
55777;DHT22;54079;44.540;18.784;2022-10-16T08:16:10;34.00;43.20
55777;DHT22;54079;44.540;18.784;2022-10-16T08:18:40;34.40;42.70
55777;DHT22;54079;44.540;18.784;2022-10-16T08:21:08;34.50;42.50
55777;DHT22;54079;44.540;18.784;2022-10-16T08:23:37;35.00;42.00
55777;DHT22;54079;44.540;18.784;2022-10-16T08:26:07;34.90;41.60
55777;DHT22;54079;44.540;18.784;2022-10-16T08:28:34;35.00;41.30
55777;DHT22;54079;44.540;18.784;2022-10-16T08:31:12;34.20;41.50
55777;DHT22;54079;44.540;18.784;2022-10-16T08:33:40;34.20;42.40
55777;DHT22;54079;44.540;18.784;2022-10-16T08:36:07;34.10;42.50
55777;DHT22;54079;44.540;18.784;2022-10-16T08:38:33;34.50;42.00
55777;DHT22;54079;44.540;18.784;2022-10-16T08:44:20;34.70;42.10
55777;DHT22;54079;44.540;18.784;2022-10-16T08:49:34;34.50;40.70
55777;DHT22;54079;44.540;18.784;2022-10-16T08:52:00;34.60;41.30
55777;DHT22;54079;44.540;18.784;2022-10-16T08:54:39;34.60;41.70
55777;DHT22;54079;44.540;18.784;2022-10-16T08:57:20;34.40;40.50
55777;DHT22;54079;44.540;18.784;2022-10-16T08:59:46;34.30;39.00
55777;DHT22;54079;44.540;18.784;2022-10-16T09:02:24;33.40;39.10
55777;DHT22;54079;44.540;18.784;2022-10-16T09:05:34;33.00;41.20
55777;DHT22;54079;44.540;18.784;2022-10-16T09:11:14;32.10;41.20
55777;DHT22;54079;44.540;18.784;2022-10-16T09:16:38;30.50;43.00
55777;DHT22;54079;44.540;18.784;2022-10-16T09:19:31;29.40;45.20
55777;DHT22;54079;44.540;18.784;2022-10-16T09:22:08;28.10;46.40
55777;DHT22;54079;44.540;18.784;2022-10-16T09:24:36;27.20;48.10
55777;DHT22;54079;44.540;18.784;2022-10-16T09:27:02;26.70;48.70
55777;DHT22;54079;44.540;18.784;2022-10-16T09:29:28;26.30;48.90
55777;DHT22;54079;44.540;18.784;2022-10-16T09:31:55;26.00;50.60
55777;DHT22;54079;44.540;18.784;2022-10-16T09:34:34;25.60;48.60
55777;DHT22;54079;44.540;18.784;2022-10-16T09:37:04;25.00;49.30
55777;DHT22;54079;44.540;18.784;2022-10-16T09:39:31;24.80;50.70
55777;DHT22;54079;44.540;18.784;2022-10-16T09:42:13;24.70;50.70
55777;DHT22;54079;44.540;18.784;2022-10-16T09:44:40;24.60;50.90
55777;DHT22;54079;44.540;18.784;2022-10-16T09:47:18;24.40;51.30
55777;DHT22;54079;44.540;18.784;2022-10-16T09:50:05;24.30;52.60
55777;DHT22;54079;44.540;18.784;2022-10-16T09:52:44;24.30;52.90
55777;DHT22;54079;44.540;18.784;2022-10-16T09:55:16;24.10;52.20
55777;DHT22;54079;44.540;18.784;2022-10-16T09:57:52;24.10;52.50
55777;DHT22;54079;44.540;18.784;2022-10-16T10:00:19;24.00;52.50
55777;DHT22;54079;44.540;18.784;2022-10-16T10:02:46;24.00;53.60
55777;DHT22;54079;44.540;18.784;2022-10-16T10:05:28;24.00;52.90
55777;DHT22;54079;44.540;18.784;2022-10-16T10:08:00;24.00;53.80
55777;DHT22;54079;44.540;18.784;2022-10-16T10:10:30;24.00;52.70
55777;DHT22;54079;44.540;18.784;2022-10-16T10:12:57;23.90;53.40
55777;DHT22;54079;44.540;18.784;2022-10-16T10:15:24;24.00;52.00
55777;DHT22;54079;44.540;18.784;2022-10-16T10:17:57;23.80;51.30
55777;DHT22;54079;44.540;18.784;2022-10-16T10:20:31;23.50;51.60
55777;DHT22;54079;44.540;18.784;2022-10-16T10:23:01;23.50;55.00
55777;DHT22;54079;44.540;18.784;2022-10-16T10:31:17;23.80;53.50
55777;DHT22;54079;44.540;18.784;2022-10-16T10:37:08;24.00;52.20
55777;DHT22;54079;44.540;18.784;2022-10-16T10:39:43;24.10;50.80
55777;DHT22;54079;44.540;18.784;2022-10-16T10:42:59;24.00;49.50
55777;DHT22;54079;44.540;18.784;2022-10-16T10:45:30;23.80;52.20
55777;DHT22;54079;44.540;18.784;2022-10-16T10:51:04;24.00;51.50
55777;DHT22;54079;44.540;18.784;2022-10-16T10:53:54;24.10;53.70
55777;DHT22;54079;44.540;18.784;2022-10-16T10:57:02;24.20;52.10
55777;DHT22;54079;44.540;18.784;2022-10-16T11:02:39;24.40;51.60
55777;DHT22;54079;44.540;18.784;2022-10-16T11:05:19;24.50;51.40
55777;DHT22;54079;44.540;18.784;2022-10-16T11:07:54;24.60;51.30
55777;DHT22;54079;44.540;18.784;2022-10-16T11:10:26;24.60;50.70
55777;DHT22;54079;44.540;18.784;2022-10-16T11:13:05;24.70;52.30
55777;DHT22;54079;44.540;18.784;2022-10-16T11:15:37;24.70;52.20
55777;DHT22;54079;44.540;18.784;2022-10-16T11:18:21;24.70;51.70
55777;DHT22;54079;44.540;18.784;2022-10-16T11:20:53;24.80;52.90
55777;DHT22;54079;44.540;18.784;2022-10-16T11:23:43;24.80;52.30
55777;DHT22;54079;44.540;18.784;2022-10-16T11:26:23;24.80;51.40
55777;DHT22;54079;44.540;18.784;2022-10-16T11:28:53;24.80;51.00
55777;DHT22;54079;44.540;18.784;2022-10-16T11:34:04;24.70;51.80
55777;DHT22;54079;44.540;18.784;2022-10-16T11:36:47;24.70;51.00
55777;DHT22;54079;44.540;18.784;2022-10-16T11:39:21;24.50;52.60
55777;DHT22;54079;44.540;18.784;2022-10-16T11:49:59;24.70;53.00
55777;DHT22;54079;44.540;18.784;2022-10-16T11:55:42;24.60;52.10
55777;DHT22;54079;44.540;18.784;2022-10-16T11:58:25;24.50;52.60
55777;DHT22;54079;44.540;18.784;2022-10-16T12:03:56;24.50;52.40
55777;DHT22;54079;44.540;18.784;2022-10-16T12:06:40;24.50;52.70
55777;DHT22;54079;44.540;18.784;2022-10-16T12:09:22;24.50;53.20
55777;DHT22;54079;44.540;18.784;2022-10-16T12:11:48;24.60;54.60
55777;DHT22;54079;44.540;18.784;2022-10-16T12:17:22;24.60;52.50
55777;DHT22;54079;44.540;18.784;2022-10-16T12:20:18;24.70;52.20
55777;DHT22;54079;44.540;18.784;2022-10-16T12:25:33;24.60;53.50
55777;DHT22;54079;44.540;18.784;2022-10-16T12:28:04;24.60;53.70
55777;DHT22;54079;44.540;18.784;2022-10-16T12:30:33;24.70;53.00
55777;DHT22;54079;44.540;18.784;2022-10-16T12:33:05;24.70;53.60
55777;DHT22;54079;44.540;18.784;2022-10-16T12:35:42;24.70;53.80
55777;DHT22;54079;44.540;18.784;2022-10-16T12:38:18;24.80;54.60
55777;DHT22;54079;44.540;18.784;2022-10-16T12:40:54;24.80;54.50
55777;DHT22;54079;44.540;18.784;2022-10-16T12:45:47;24.60;54.70
55777;DHT22;54079;44.540;18.784;2022-10-16T12:48:20;24.50;55.80
55777;DHT22;54079;44.540;18.784;2022-10-16T12:50:47;24.50;55.80
55777;DHT22;54079;44.540;18.784;2022-10-16T12:53:22;24.40;56.50
55777;DHT22;54079;44.540;18.784;2022-10-16T12:56:17;24.50;56.40
55777;DHT22;54079;44.540;18.784;2022-10-16T12:58:51;24.40;57.10
55777;DHT22;54079;44.540;18.784;2022-10-16T13:01:43;24.30;56.20
55777;DHT22;54079;44.540;18.784;2022-10-16T13:09:22;24.30;56.50
55777;DHT22;54079;44.540;18.784;2022-10-16T13:28:43;24.00;57.60
55777;DHT22;54079;44.540;18.784;2022-10-16T13:31:21;24.00;57.20
55777;DHT22;54079;44.540;18.784;2022-10-16T13:33:50;24.00;57.70
55777;DHT22;54079;44.540;18.784;2022-10-16T13:36:34;23.90;58.20
55777;DHT22;54079;44.540;18.784;2022-10-16T13:39:27;23.90;58.30
55777;DHT22;54079;44.540;18.784;2022-10-16T13:42:11;24.00;57.80
55777;DHT22;54079;44.540;18.784;2022-10-16T13:44:43;24.00;57.60
55777;DHT22;54079;44.540;18.784;2022-10-16T13:47:29;24.00;58.00
55777;DHT22;54079;44.540;18.784;2022-10-16T13:50:13;23.90;58.20
55777;DHT22;54079;44.540;18.784;2022-10-16T13:52:39;23.90;58.60
55777;DHT22;54079;44.540;18.784;2022-10-16T13:55:14;23.90;58.20
55777;DHT22;54079;44.540;18.784;2022-10-16T13:57:42;23.80;58.30
55777;DHT22;54079;44.540;18.784;2022-10-16T14:00:24;23.70;58.00
55777;DHT22;54079;44.540;18.784;2022-10-16T14:03:04;23.80;58.60
55777;DHT22;54079;44.540;18.784;2022-10-16T14:05:31;23.70;58.80
55777;DHT22;54079;44.540;18.784;2022-10-16T14:07:58;23.70;59.00
55777;DHT22;54079;44.540;18.784;2022-10-16T14:10:31;23.60;58.80
55777;DHT22;54079;44.540;18.784;2022-10-16T14:13:04;23.60;59.20
55777;DHT22;54079;44.540;18.784;2022-10-16T14:15:32;23.50;58.90
55777;DHT22;54079;44.540;18.784;2022-10-16T14:17:59;23.50;58.90
55777;DHT22;54079;44.540;18.784;2022-10-16T14:20:30;23.50;59.50
55777;DHT22;54079;44.540;18.784;2022-10-16T14:23:18;23.50;59.70
55777;DHT22;54079;44.540;18.784;2022-10-16T14:25:45;23.40;59.60
55777;DHT22;54079;44.540;18.784;2022-10-16T14:28:22;23.40;59.70
55777;DHT22;54079;44.540;18.784;2022-10-16T14:30:57;23.40;59.80
55777;DHT22;54079;44.540;18.784;2022-10-16T14:33:31;23.10;59.50
55777;DHT22;54079;44.540;18.784;2022-10-16T14:36:22;23.10;60.70
55777;DHT22;54079;44.540;18.784;2022-10-16T14:41:28;22.90;60.80
55777;DHT22;54079;44.540;18.784;2022-10-16T14:43:57;22.90;60.40
55777;DHT22;54079;44.540;18.784;2022-10-16T14:46:44;22.80;60.90
55777;DHT22;54079;44.540;18.784;2022-10-16T14:51:37;22.60;61.20
55777;DHT22;54079;44.540;18.784;2022-10-16T14:54:04;22.60;61.60
55777;DHT22;54079;44.540;18.784;2022-10-16T14:56:46;22.50;61.80
55777;DHT22;54079;44.540;18.784;2022-10-16T14:59:19;22.40;61.90
55777;DHT22;54079;44.540;18.784;2022-10-16T15:01:46;22.30;62.00
55777;DHT22;54079;44.540;18.784;2022-10-16T15:04:13;22.20;61.90
55777;DHT22;54079;44.540;18.784;2022-10-16T15:06:39;22.10;62.00
55777;DHT22;54079;44.540;18.784;2022-10-16T15:09:05;21.90;62.30
55777;DHT22;54079;44.540;18.784;2022-10-16T15:11:32;21.90;62.90
55777;DHT22;54079;44.540;18.784;2022-10-16T15:13:58;21.80;63.00
55777;DHT22;54079;44.540;18.784;2022-10-16T15:16:24;21.70;63.80
55777;DHT22;54079;44.540;18.784;2022-10-16T15:18:50;21.50;64.40
55777;DHT22;54079;44.540;18.784;2022-10-16T15:21:28;21.50;64.60
55777;DHT22;54079;44.540;18.784;2022-10-16T15:23:55;21.50;65.10
55777;DHT22;54079;44.540;18.784;2022-10-16T15:26:26;21.40;65.30
55777;DHT22;54079;44.540;18.784;2022-10-16T15:28:52;21.30;65.60
55777;DHT22;54079;44.540;18.784;2022-10-16T15:31:19;21.20;65.80
55777;DHT22;54079;44.540;18.784;2022-10-16T15:33:45;21.10;66.40
55777;DHT22;54079;44.540;18.784;2022-10-16T15:36:16;21.00;66.60
55777;DHT22;54079;44.540;18.784;2022-10-16T15:38:44;20.90;66.90
55777;DHT22;54079;44.540;18.784;2022-10-16T15:41:11;20.80;67.40
55777;DHT22;54079;44.540;18.784;2022-10-16T15:43:37;20.60;67.90
55777;DHT22;54079;44.540;18.784;2022-10-16T15:46:05;20.50;68.30
55777;DHT22;54079;44.540;18.784;2022-10-16T15:48:32;20.30;68.50
55777;DHT22;54079;44.540;18.784;2022-10-16T15:51:00;20.10;69.10
55777;DHT22;54079;44.540;18.784;2022-10-16T15:53:26;20.00;70.00
55777;DHT22;54079;44.540;18.784;2022-10-16T15:55:52;19.90;70.00
55777;DHT22;54079;44.540;18.784;2022-10-16T15:58:18;19.80;70.10
55777;DHT22;54079;44.540;18.784;2022-10-16T16:00:44;19.80;70.70
55777;DHT22;54079;44.540;18.784;2022-10-16T16:03:10;19.60;71.00
55777;DHT22;54079;44.540;18.784;2022-10-16T16:05:38;19.40;71.20
55777;DHT22;54079;44.540;18.784;2022-10-16T16:08:05;19.40;71.60
55777;DHT22;54079;44.540;18.784;2022-10-16T16:10:31;19.20;72.30
55777;DHT22;54079;44.540;18.784;2022-10-16T16:12:57;19.20;73.00
55777;DHT22;54079;44.540;18.784;2022-10-16T16:15:23;19.10;72.40
55777;DHT22;54079;44.540;18.784;2022-10-16T16:17:49;19.10;72.80
55777;DHT22;54079;44.540;18.784;2022-10-16T16:20:15;19.00;73.20
55777;DHT22;54079;44.540;18.784;2022-10-16T16:22:42;18.90;73.40
55777;DHT22;54079;44.540;18.784;2022-10-16T16:25:08;18.80;73.70
55777;DHT22;54079;44.540;18.784;2022-10-16T16:27:34;18.80;73.90
55777;DHT22;54079;44.540;18.784;2022-10-16T16:30:01;18.70;73.90
55777;DHT22;54079;44.540;18.784;2022-10-16T16:32:29;18.60;74.10
55777;DHT22;54079;44.540;18.784;2022-10-16T16:34:55;18.60;74.80
55777;DHT22;54079;44.540;18.784;2022-10-16T16:37:21;18.50;74.80
55777;DHT22;54079;44.540;18.784;2022-10-16T16:39:47;18.50;74.80
55777;DHT22;54079;44.540;18.784;2022-10-16T16:42:13;18.50;74.90
55777;DHT22;54079;44.540;18.784;2022-10-16T16:44:39;18.40;75.10
55777;DHT22;54079;44.540;18.784;2022-10-16T16:47:05;18.30;75.50
55777;DHT22;54079;44.540;18.784;2022-10-16T16:49:32;18.30;75.90
55777;DHT22;54079;44.540;18.784;2022-10-16T16:51:58;18.30;76.00
55777;DHT22;54079;44.540;18.784;2022-10-16T16:54:24;18.30;75.80
55777;DHT22;54079;44.540;18.784;2022-10-16T16:56:50;18.20;75.90
55777;DHT22;54079;44.540;18.784;2022-10-16T16:59:18;18.20;76.50
55777;DHT22;54079;44.540;18.784;2022-10-16T17:01:45;18.20;76.30
55777;DHT22;54079;44.540;18.784;2022-10-16T17:04:12;18.10;76.80
55777;DHT22;54079;44.540;18.784;2022-10-16T17:06:41;18.10;76.60
55777;DHT22;54079;44.540;18.784;2022-10-16T17:09:07;18.10;76.70
55777;DHT22;54079;44.540;18.784;2022-10-16T17:11:33;17.90;77.10
55777;DHT22;54079;44.540;18.784;2022-10-16T17:14:00;17.90;78.30